createdAt,value
2023-11-24T00:00:39.000Z,282.02
2023-11-24T00:02:05.000Z,282.15
2023-11-24T00:04:12.000Z,282.09
2023-11-24T00:06:57.000Z,282.02
2023-11-24T00:08:23.000Z,282.09
2023-11-24T00:10:30.000Z,282.09
2023-11-24T00:11:56.000Z,282.21
2023-11-24T00:14:02.000Z,282.09
2023-11-24T00:15:29.000Z,281.9
2023-11-24T00:17:35.000Z,281.09
2023-11-24T00:19:01.000Z,280.71
2023-11-24T00:21:07.000Z,280.46
2023-11-24T00:22:34.000Z,280.4
2023-11-24T00:24:40.000Z,280.34
2023-11-24T00:26:07.000Z,280.34
2023-11-24T00:28:13.000Z,280.34
2023-11-24T00:29:40.000Z,280.4
2023-11-24T00:31:46.000Z,280.4
2023-11-24T00:33:13.000Z,280.4
2023-11-24T00:35:19.000Z,280.34
2023-11-24T00:36:46.000Z,280.34
2023-11-24T00:38:52.000Z,280.34
2023-11-24T00:40:18.000Z,280.27
2023-11-24T00:42:24.000Z,280.27
2023-11-24T00:45:10.000Z,280.21
2023-11-24T00:46:36.000Z,280.21
2023-11-24T00:48:43.000Z,280.15
2023-11-24T00:50:09.000Z,280.09
2023-11-24T00:52:15.000Z,280.09
2023-11-24T00:53:42.000Z,280.09
2023-11-24T00:55:48.000Z,280.09
2023-11-24T00:57:14.000Z,280.09
2023-11-24T00:59:20.000Z,280.02
2023-11-24T01:00:47.000Z,280.02
2023-11-24T01:02:53.000Z,280.09
2023-11-24T01:04:20.000Z,280.09
2023-11-24T01:06:26.000Z,280.02
2023-11-24T01:07:52.000Z,280.09
2023-11-24T01:09:59.000Z,280.09
2023-11-24T01:11:25.000Z,280.09
2023-11-24T01:13:32.000Z,280.02
2023-11-24T01:14:58.000Z,279.96
2023-11-24T01:17:05.000Z,279.96
2023-11-24T01:18:31.000Z,280.02
2023-11-24T01:20:37.000Z,279.96
2023-11-24T01:23:23.000Z,279.96
2023-11-24T01:24:49.000Z,280.02
2023-11-24T01:26:55.000Z,280.02
2023-11-24T01:28:22.000Z,279.96
2023-11-24T01:30:29.000Z,279.96
2023-11-24T01:31:55.000Z,279.96
2023-11-24T01:34:01.000Z,279.96
2023-11-24T01:35:28.000Z,279.96
2023-11-24T01:37:34.000Z,279.9
2023-11-24T01:39:01.000Z,279.9
2023-11-24T01:41:07.000Z,279.96
2023-11-24T01:42:34.000Z,279.96
2023-11-24T01:44:40.000Z,279.9
2023-11-24T01:46:06.000Z,279.9
2023-11-24T01:48:13.000Z,279.9
2023-11-24T01:49:39.000Z,279.9
2023-11-24T01:51:46.000Z,279.9
2023-11-24T01:53:12.000Z,279.9
2023-11-24T01:55:19.000Z,279.84
2023-11-24T01:56:45.000Z,279.84
2023-11-24T01:58:52.000Z,279.84
2023-11-24T02:01:37.000Z,279.77
2023-11-24T02:03:04.000Z,279.71
2023-11-24T02:05:10.000Z,279.71
2023-11-24T02:06:36.000Z,279.71
2023-11-24T02:08:43.000Z,279.65
2023-11-24T02:10:09.000Z,279.65
2023-11-24T02:12:15.000Z,279.65
2023-11-24T02:13:42.000Z,279.65
2023-11-24T02:15:48.000Z,279.65
2023-11-24T02:17:15.000Z,279.65
2023-11-24T02:19:21.000Z,279.59
2023-11-24T02:20:47.000Z,279.65
2023-11-24T02:22:54.000Z,279.59
2023-11-24T02:24:20.000Z,279.59
2023-11-24T02:26:28.000Z,279.59
2023-11-24T02:27:54.000Z,279.59
2023-11-24T02:30:02.000Z,279.59
2023-11-24T02:31:28.000Z,279.59
2023-11-24T02:33:34.000Z,279.65
2023-11-24T02:35:01.000Z,279.59
2023-11-24T02:37:07.000Z,279.59
2023-11-24T02:39:52.000Z,279.59
2023-11-24T02:41:19.000Z,279.59
2023-11-24T02:43:25.000Z,279.46
2023-11-24T02:44:51.000Z,279.4
2023-11-24T02:46:58.000Z,279.4
2023-11-24T02:48:24.000Z,279.4
2023-11-24T02:50:31.000Z,279.27
2023-11-24T02:51:57.000Z,279.21
2023-11-24T02:54:03.000Z,279.21
2023-11-24T02:55:30.000Z,279.21
2023-11-24T02:57:36.000Z,279.15
2023-11-24T02:59:03.000Z,279.15
2023-11-24T03:01:10.000Z,279.09
2023-11-24T03:02:37.000Z,279.02
2023-11-24T03:04:43.000Z,279.02
2023-11-24T03:06:10.000Z,279.02
2023-11-24T03:08:16.000Z,278.96
2023-11-24T03:09:43.000Z,278.96
2023-11-24T03:11:49.000Z,278.9
2023-11-24T03:13:16.000Z,278.9
2023-11-24T03:15:22.000Z,278.84
2023-11-24T03:18:07.000Z,278.77
2023-11-24T03:19:34.000Z,278.77
2023-11-24T03:21:40.000Z,278.77
2023-11-24T03:23:07.000Z,278.77
2023-11-24T03:25:13.000Z,278.77
2023-11-24T03:26:39.000Z,278.77
2023-11-24T03:28:46.000Z,278.77
2023-11-24T03:30:12.000Z,278.77
2023-11-24T03:32:18.000Z,278.71
2023-11-24T03:33:45.000Z,278.77
2023-11-24T03:35:51.000Z,278.77
2023-11-24T03:37:18.000Z,278.71
2023-11-24T03:39:24.000Z,278.65
2023-11-24T03:40:50.000Z,278.59
2023-11-24T03:42:57.000Z,278.65
2023-11-24T03:44:23.000Z,278.59
2023-11-24T03:46:29.000Z,278.59
2023-11-24T03:47:56.000Z,278.52
2023-11-24T03:50:02.000Z,278.52
2023-11-24T03:51:28.000Z,278.46
2023-11-24T03:53:34.000Z,278.46
2023-11-24T03:56:20.000Z,278.4
2023-11-24T03:57:46.000Z,278.4
2023-11-24T03:59:52.000Z,278.34
2023-11-24T04:01:19.000Z,278.27
2023-11-24T04:03:25.000Z,278.21
2023-11-24T04:04:52.000Z,278.15
2023-11-24T04:06:58.000Z,278.09
2023-11-24T04:08:25.000Z,278.09
2023-11-24T04:10:31.000Z,278.09
2023-11-24T04:11:57.000Z,278.02
2023-11-24T04:14:03.000Z,277.96
2023-11-24T04:15:30.000Z,277.96
2023-11-24T04:17:36.000Z,277.84
2023-11-24T04:19:03.000Z,277.84
2023-11-24T04:21:09.000Z,277.84
2023-11-24T04:22:35.000Z,277.84
2023-11-24T04:24:42.000Z,277.65
2023-11-24T04:26:08.000Z,277.71
2023-11-24T04:28:14.000Z,277.71
2023-11-24T04:29:41.000Z,277.71
2023-11-24T04:31:47.000Z,277.71
2023-11-24T04:34:32.000Z,277.59
2023-11-24T04:35:59.000Z,277.59
2023-11-24T04:38:05.000Z,277.52
2023-11-24T04:39:32.000Z,277.59
2023-11-24T04:41:38.000Z,277.71
2023-11-24T04:43:04.000Z,277.65
2023-11-24T04:45:12.000Z,277.65
2023-11-24T04:46:38.000Z,277.59
2023-11-24T04:48:45.000Z,277.52
2023-11-24T04:50:11.000Z,277.52
2023-11-24T04:52:18.000Z,277.52
2023-11-24T04:53:44.000Z,277.52
2023-11-24T04:55:50.000Z,277.52
2023-11-24T04:57:17.000Z,277.59
2023-11-24T04:59:23.000Z,277.59
2023-11-24T05:00:49.000Z,277.71
2023-11-24T05:02:57.000Z,277.65
2023-11-24T05:04:23.000Z,277.65
2023-11-24T05:06:30.000Z,277.59
2023-11-24T05:07:56.000Z,277.65
2023-11-24T05:10:02.000Z,277.65
2023-11-24T05:12:47.000Z,277.65
2023-11-24T05:14:14.000Z,277.59
2023-11-24T05:16:20.000Z,277.59
2023-11-24T05:17:47.000Z,277.59
2023-11-24T05:19:53.000Z,277.59
2023-11-24T05:21:19.000Z,277.59
2023-11-24T05:23:25.000Z,277.52
2023-11-24T05:24:52.000Z,277.46
2023-11-24T05:26:58.000Z,277.52
2023-11-24T05:28:25.000Z,277.59
2023-11-24T05:30:31.000Z,277.59
2023-11-24T05:31:58.000Z,277.52
2023-11-24T05:34:07.000Z,277.46
2023-11-24T05:35:33.000Z,277.46
2023-11-24T05:37:39.000Z,277.52
2023-11-24T05:39:06.000Z,277.52
2023-11-24T05:41:12.000Z,277.52
2023-11-24T05:42:38.000Z,277.46
2023-11-24T05:44:45.000Z,277.46
2023-11-24T05:46:11.000Z,277.52
2023-11-24T05:48:18.000Z,277.46
2023-11-24T05:51:03.000Z,277.46
2023-11-24T05:52:30.000Z,277.46
2023-11-24T05:54:36.000Z,277.52
2023-11-24T05:56:02.000Z,277.52
2023-11-24T05:58:09.000Z,277.59
2023-11-24T05:59:36.000Z,277.59
2023-11-24T06:01:42.000Z,277.52
2023-11-24T06:03:08.000Z,277.65
2023-11-24T06:05:14.000Z,277.65
2023-11-24T06:06:42.000Z,277.71
2023-11-24T06:08:48.000Z,277.71
2023-11-24T06:10:14.000Z,277.65
2023-11-24T06:12:21.000Z,277.65
2023-11-24T06:13:47.000Z,277.65
2023-11-24T06:15:54.000Z,277.71
2023-11-24T06:17:20.000Z,277.71
2023-11-24T06:19:27.000Z,277.71
2023-11-24T06:20:53.000Z,277.77
2023-11-24T06:22:59.000Z,277.77
2023-11-24T06:24:26.000Z,277.77
2023-11-24T06:26:32.000Z,277.84
2023-11-24T06:29:17.000Z,277.84
2023-11-24T06:30:44.000Z,277.84
2023-11-24T06:32:50.000Z,277.9
2023-11-24T06:34:16.000Z,277.84
2023-11-24T06:36:23.000Z,277.84
2023-11-24T06:37:49.000Z,277.84
2023-11-24T06:39:56.000Z,277.84
2023-11-24T06:41:22.000Z,277.77
2023-11-24T06:43:28.000Z,277.77
2023-11-24T06:44:55.000Z,277.77
2023-11-24T06:47:01.000Z,277.77
2023-11-24T06:48:28.000Z,277.77
2023-11-24T06:50:34.000Z,277.71
2023-11-24T06:52:01.000Z,277.71
2023-11-24T06:54:07.000Z,277.71
2023-11-24T06:55:34.000Z,277.71
2023-11-24T06:57:40.000Z,277.71
2023-11-24T06:59:07.000Z,277.65
2023-11-24T07:01:13.000Z,277.65
2023-11-24T07:02:40.000Z,277.59
2023-11-24T07:04:46.000Z,277.59
2023-11-24T07:07:31.000Z,277.52
2023-11-24T07:08:58.000Z,277.52
2023-11-24T07:11:04.000Z,277.46
2023-11-24T07:12:30.000Z,277.46
2023-11-24T07:14:37.000Z,277.4
2023-11-24T07:16:03.000Z,277.4
2023-11-24T07:18:10.000Z,277.4
2023-11-24T07:19:36.000Z,277.46
2023-11-24T07:21:42.000Z,277.46
2023-11-24T07:23:09.000Z,277.46
2023-11-24T07:25:15.000Z,277.46
2023-11-24T07:26:41.000Z,277.46
2023-11-24T07:28:48.000Z,277.46
2023-11-24T07:30:14.000Z,277.4
2023-11-24T07:32:20.000Z,277.46
2023-11-24T07:33:47.000Z,277.46
2023-11-24T07:35:53.000Z,277.4
2023-11-24T07:37:20.000Z,277.46
2023-11-24T07:39:26.000Z,277.4
2023-11-24T07:40:52.000Z,277.4
2023-11-24T07:42:58.000Z,277.4
2023-11-24T07:45:43.000Z,277.4
2023-11-24T07:47:10.000Z,277.4
2023-11-24T07:49:16.000Z,277.34
2023-11-24T07:50:43.000Z,277.4
2023-11-24T07:52:49.000Z,277.34
2023-11-24T07:54:16.000Z,277.34
2023-11-24T07:56:22.000Z,277.34
2023-11-24T07:57:49.000Z,277.27
2023-11-24T07:59:55.000Z,277.27
2023-11-24T08:01:21.000Z,277.21
2023-11-24T08:03:28.000Z,277.21
2023-11-24T08:04:55.000Z,277.21
2023-11-24T08:07:01.000Z,277.21
2023-11-24T08:08:28.000Z,277.21
2023-11-24T08:10:34.000Z,277.15
2023-11-24T08:12:01.000Z,277.21
2023-11-24T08:14:07.000Z,277.21
2023-11-24T08:15:33.000Z,277.34
2023-11-24T08:17:39.000Z,277.4
2023-11-24T08:19:06.000Z,277.46
2023-11-24T08:21:12.000Z,277.46
2023-11-24T08:23:57.000Z,277.52
2023-11-24T08:25:24.000Z,277.52
2023-11-24T08:27:30.000Z,277.46
2023-11-24T08:28:56.000Z,277.46
2023-11-24T08:31:02.000Z,277.52
2023-11-24T08:32:29.000Z,277.52
2023-11-24T08:34:35.000Z,277.59
2023-11-24T08:36:02.000Z,277.65
2023-11-24T08:38:08.000Z,277.71
2023-11-24T08:39:35.000Z,277.77
2023-11-24T08:41:41.000Z,277.77
2023-11-24T08:43:07.000Z,277.77
2023-11-24T08:45:14.000Z,277.71
2023-11-24T08:46:40.000Z,277.71
2023-11-24T08:48:47.000Z,277.71
2023-11-24T08:50:13.000Z,277.77
2023-11-24T08:52:20.000Z,277.9
2023-11-24T08:53:46.000Z,277.96
2023-11-24T08:55:52.000Z,277.96
2023-11-24T08:57:22.000Z,277.96
2023-11-24T08:59:28.000Z,277.9
2023-11-24T09:02:13.000Z,277.96
2023-11-24T09:03:40.000Z,278.02
2023-11-24T09:05:46.000Z,277.96
2023-11-24T09:07:13.000Z,277.9
2023-11-24T09:09:19.000Z,277.77
2023-11-24T09:10:45.000Z,277.77
2023-11-24T09:12:51.000Z,277.84
2023-11-24T09:14:18.000Z,277.84
2023-11-24T09:16:24.000Z,277.84
2023-11-24T09:17:51.000Z,277.9
2023-11-24T09:19:57.000Z,277.9
2023-11-24T09:21:23.000Z,277.96
2023-11-24T09:23:29.000Z,277.96
2023-11-24T09:24:56.000Z,278.02
2023-11-24T09:27:02.000Z,278.09
2023-11-24T09:28:28.000Z,278.09
2023-11-24T09:30:35.000Z,278.09
2023-11-24T09:32:01.000Z,278.09
2023-11-24T09:34:07.000Z,278.02
2023-11-24T09:35:34.000Z,278.02
2023-11-24T09:37:41.000Z,278.02
2023-11-24T09:40:26.000Z,278.09
2023-11-24T09:41:52.000Z,278.09
2023-11-24T09:43:58.000Z,278.15
2023-11-24T09:45:25.000Z,278.15
2023-11-24T09:47:31.000Z,278.21
2023-11-24T09:48:58.000Z,278.21
2023-11-24T09:51:04.000Z,278.21
2023-11-24T09:52:31.000Z,278.27
2023-11-24T09:54:37.000Z,278.27
2023-11-24T09:56:03.000Z,278.34
2023-11-24T09:58:10.000Z,278.4
2023-11-24T09:59:36.000Z,278.34
2023-11-24T10:01:42.000Z,278.27
2023-11-24T10:03:09.000Z,278.27
2023-11-24T10:05:15.000Z,278.21
2023-11-24T10:06:41.000Z,278.21
2023-11-24T10:08:48.000Z,278.21
2023-11-24T10:10:14.000Z,278.21
2023-11-24T10:12:20.000Z,278.27
2023-11-24T10:13:47.000Z,278.27
2023-11-24T10:15:55.000Z,278.21
2023-11-24T10:18:41.000Z,278.21
2023-11-24T10:20:07.000Z,278.27
2023-11-24T10:22:13.000Z,278.21
2023-11-24T10:23:40.000Z,278.27
2023-11-24T10:25:46.000Z,278.27
2023-11-24T10:27:12.000Z,278.21
2023-11-24T10:29:19.000Z,278.21
2023-11-24T10:30:45.000Z,278.15
2023-11-24T10:32:52.000Z,278.15
2023-11-24T10:34:18.000Z,278.15
2023-11-24T10:36:25.000Z,278.09
2023-11-24T10:37:51.000Z,278.09
2023-11-24T10:39:57.000Z,278.02
2023-11-24T10:41:24.000Z,277.96
2023-11-24T10:43:30.000Z,277.96
2023-11-24T10:44:56.000Z,277.96
2023-11-24T10:47:03.000Z,278.02
2023-11-24T10:48:29.000Z,278.02
2023-11-24T10:50:36.000Z,278.02
2023-11-24T10:52:02.000Z,278.02
2023-11-24T10:54:08.000Z,277.96
2023-11-24T10:56:54.000Z,277.9
2023-11-24T10:58:20.000Z,277.9
2023-11-24T11:00:26.000Z,277.9
2023-11-24T11:01:53.000Z,277.96
2023-11-24T11:04:00.000Z,277.96
2023-11-24T11:05:26.000Z,278.09
2023-11-24T11:07:32.000Z,278.09
2023-11-24T11:09:00.000Z,278.15
2023-11-24T11:11:07.000Z,278.27
2023-11-24T11:12:34.000Z,278.34
2023-11-24T11:14:40.000Z,278.46
2023-11-24T11:16:07.000Z,278.4
2023-11-24T11:18:13.000Z,278.34
2023-11-24T11:19:40.000Z,278.34
2023-11-24T11:21:47.000Z,278.34
2023-11-24T11:23:13.000Z,278.27
2023-11-24T11:25:19.000Z,278.27
2023-11-24T11:26:46.000Z,278.27
2023-11-24T11:28:52.000Z,278.27
2023-11-24T11:30:19.000Z,278.34
2023-11-24T11:32:25.000Z,278.46
2023-11-24T11:35:11.000Z,278.52
2023-11-24T11:36:37.000Z,278.46
2023-11-24T11:38:43.000Z,278.4
2023-11-24T11:40:10.000Z,278.46
2023-11-24T11:42:16.000Z,278.46
2023-11-24T11:43:43.000Z,278.52
2023-11-24T11:45:49.000Z,278.52
2023-11-24T11:47:16.000Z,278.52
2023-11-24T11:49:23.000Z,278.4
2023-11-24T11:50:50.000Z,278.46
2023-11-24T11:52:56.000Z,278.34
2023-11-24T11:54:23.000Z,278.34
2023-11-24T11:56:29.000Z,278.27
2023-11-24T11:57:55.000Z,278.27
2023-11-24T12:00:02.000Z,278.15
2023-11-24T12:01:28.000Z,278.15
2023-11-24T12:03:36.000Z,277.96
2023-11-24T12:05:02.000Z,277.65
2023-11-24T12:07:09.000Z,276.65
2023-11-24T12:08:35.000Z,276.09
2023-11-24T12:10:41.000Z,275.52
2023-11-24T12:13:27.000Z,275.15
2023-11-24T12:14:53.000Z,275.02
2023-11-24T12:17:00.000Z,275.02
2023-11-24T12:18:26.000Z,275.02
2023-11-24T12:20:33.000Z,274.96
2023-11-24T12:21:59.000Z,274.96
2023-11-24T12:24:06.000Z,274.96
2023-11-24T12:25:41.000Z,274.96
2023-11-24T12:27:47.000Z,275.09
2023-11-24T12:29:14.000Z,275.09
2023-11-24T12:31:20.000Z,275.15
2023-11-24T12:32:47.000Z,275.15
2023-11-24T12:34:54.000Z,275.15
2023-11-24T12:36:20.000Z,275.15
2023-11-24T12:38:26.000Z,275.21
2023-11-24T12:39:53.000Z,275.21
2023-11-24T12:41:59.000Z,275.15
2023-11-24T12:43:25.000Z,275.15
2023-11-24T12:45:32.000Z,275.15
2023-11-24T12:46:58.000Z,275.15
2023-11-24T12:49:05.000Z,275.15
2023-11-24T12:51:50.000Z,275.21
2023-11-24T12:53:16.000Z,275.21
2023-11-24T12:55:23.000Z,275.21
2023-11-24T12:56:49.000Z,275.15
2023-11-24T12:58:56.000Z,275.15
2023-11-24T13:00:23.000Z,275.21
2023-11-24T13:02:29.000Z,275.34
2023-11-24T13:03:55.000Z,275.4
2023-11-24T13:06:02.000Z,275.4
2023-11-24T13:07:28.000Z,275.46
2023-11-24T13:09:34.000Z,275.46
2023-11-24T13:11:01.000Z,275.59
2023-11-24T13:13:07.000Z,275.71
2023-11-24T13:14:34.000Z,275.77
2023-11-24T13:16:40.000Z,275.84
2023-11-24T13:18:07.000Z,275.84
2023-11-24T13:20:13.000Z,275.96
2023-11-24T13:21:39.000Z,276.09
2023-11-24T13:23:45.000Z,276.09
2023-11-24T13:25:12.000Z,276.02
2023-11-24T13:27:18.000Z,276.02
2023-11-24T13:30:03.000Z,276.02
2023-11-24T13:31:30.000Z,275.96
2023-11-24T13:33:40.000Z,275.96
2023-11-24T13:35:07.000Z,276.09
2023-11-24T13:37:13.000Z,276.09
2023-11-24T13:38:40.000Z,276.15
2023-11-24T13:40:46.000Z,276.15
2023-11-24T13:42:13.000Z,276.09
2023-11-24T13:44:19.000Z,276.09
2023-11-24T13:45:46.000Z,276.09
2023-11-24T13:47:52.000Z,276.09
2023-11-24T13:49:18.000Z,276.09
2023-11-24T13:51:25.000Z,276.09
2023-11-24T13:52:51.000Z,276.09
2023-11-24T13:54:58.000Z,276.09
2023-11-24T13:56:24.000Z,276.15
2023-11-24T13:58:30.000Z,276.21
2023-11-24T13:59:57.000Z,276.27
2023-11-24T14:02:03.000Z,276.21
2023-11-24T14:03:30.000Z,276.15
2023-11-24T14:05:36.000Z,276.21
2023-11-24T14:08:21.000Z,276.21
2023-11-24T14:09:48.000Z,276.15
2023-11-24T14:11:54.000Z,276.15
2023-11-24T14:13:20.000Z,276.21
2023-11-24T14:15:27.000Z,276.21
2023-11-24T14:16:53.000Z,276.21
2023-11-24T14:18:59.000Z,276.21
2023-11-24T14:20:26.000Z,276.21
2023-11-24T14:22:32.000Z,276.15
2023-11-24T14:23:59.000Z,276.15
2023-11-24T14:26:05.000Z,276.09
2023-11-24T14:27:32.000Z,276.09
2023-11-24T14:29:38.000Z,276.09
2023-11-24T14:31:04.000Z,276.09
2023-11-24T14:33:11.000Z,276.09
2023-11-24T14:34:37.000Z,276.09
2023-11-24T14:36:44.000Z,275.96
2023-11-24T14:38:10.000Z,276.02
2023-11-24T14:40:16.000Z,276.02
2023-11-24T14:41:46.000Z,276.02
2023-11-24T14:43:52.000Z,275.96
2023-11-24T14:46:38.000Z,276.02
2023-11-24T14:48:04.000Z,276.02
2023-11-24T14:50:11.000Z,276.02
2023-11-24T14:51:38.000Z,276.02
2023-11-24T14:53:44.000Z,276.02
2023-11-24T14:55:10.000Z,276.02
2023-11-24T14:57:16.000Z,276.02
2023-11-24T14:58:43.000Z,275.96
2023-11-24T15:00:49.000Z,275.96
2023-11-24T15:02:16.000Z,276.02
2023-11-24T15:04:22.000Z,275.96
2023-11-24T15:05:49.000Z,275.9
2023-11-24T15:07:55.000Z,275.84
2023-11-24T15:09:21.000Z,275.77
2023-11-24T15:11:28.000Z,275.77
2023-11-24T15:12:54.000Z,275.84
2023-11-24T15:15:01.000Z,275.84
2023-11-24T15:16:27.000Z,275.9
2023-11-24T15:18:34.000Z,275.9
2023-11-24T15:20:01.000Z,275.96
2023-11-24T15:22:07.000Z,275.9
2023-11-24T15:24:52.000Z,275.96
2023-11-24T15:26:19.000Z,275.96
2023-11-24T15:28:25.000Z,275.96
2023-11-24T15:29:52.000Z,275.96
2023-11-24T15:31:58.000Z,275.9
2023-11-24T15:33:25.000Z,275.9
2023-11-24T15:35:31.000Z,275.84
2023-11-24T15:36:58.000Z,275.84
2023-11-24T15:39:04.000Z,275.77
2023-11-24T15:40:30.000Z,275.84
2023-11-24T15:42:37.000Z,275.84
2023-11-24T15:44:03.000Z,275.84
2023-11-24T15:46:09.000Z,275.84
2023-11-24T15:47:36.000Z,275.9
2023-11-24T15:49:43.000Z,275.84
2023-11-24T15:51:10.000Z,275.9
2023-11-24T15:53:16.000Z,275.9
2023-11-24T15:54:43.000Z,275.9
2023-11-24T15:56:49.000Z,275.84
2023-11-24T15:58:15.000Z,275.84
2023-11-24T16:00:22.000Z,275.77
2023-11-24T16:03:07.000Z,275.65
2023-11-24T16:04:33.000Z,275.65
2023-11-24T16:06:40.000Z,275.59
2023-11-24T16:08:06.000Z,275.52
2023-11-24T16:10:13.000Z,275.4
2023-11-24T16:11:40.000Z,275.4
2023-11-24T16:13:46.000Z,275.4
2023-11-24T16:15:13.000Z,275.4
2023-11-24T16:17:19.000Z,275.4
2023-11-24T16:18:45.000Z,275.4
2023-11-24T16:20:51.000Z,275.4
2023-11-24T16:22:18.000Z,275.4
2023-11-24T16:24:24.000Z,275.34
2023-11-24T16:25:51.000Z,275.34
2023-11-24T16:27:57.000Z,275.34
2023-11-24T16:29:23.000Z,275.34
2023-11-24T16:31:30.000Z,275.34
2023-11-24T16:32:56.000Z,275.4
2023-11-24T16:35:03.000Z,275.4
2023-11-24T16:36:29.000Z,275.46
2023-11-24T16:38:35.000Z,275.46
2023-11-24T16:41:21.000Z,275.46
2023-11-24T16:42:47.000Z,275.4
2023-11-24T16:44:53.000Z,275.4
2023-11-24T16:46:20.000Z,275.4
2023-11-24T16:48:26.000Z,275.34
2023-11-24T16:49:53.000Z,275.4
2023-11-24T16:51:59.000Z,275.34
2023-11-24T16:53:25.000Z,275.34
2023-11-24T16:55:32.000Z,275.27
2023-11-24T16:56:58.000Z,275.27
2023-11-24T16:59:05.000Z,275.27
2023-11-24T17:00:31.000Z,275.34
2023-11-24T17:02:37.000Z,275.34
2023-11-24T17:04:04.000Z,275.34
2023-11-24T17:06:10.000Z,275.46
2023-11-24T17:07:37.000Z,275.46
2023-11-24T17:09:43.000Z,275.46
2023-11-24T17:11:09.000Z,275.46
2023-11-24T17:13:16.000Z,275.52
2023-11-24T17:14:42.000Z,275.52
2023-11-24T17:16:48.000Z,275.46
2023-11-24T17:19:34.000Z,275.46
2023-11-24T17:21:00.000Z,275.52
2023-11-24T17:23:07.000Z,275.46
2023-11-24T17:24:33.000Z,275.46
2023-11-24T17:26:40.000Z,275.46
2023-11-24T17:28:06.000Z,275.4
2023-11-24T17:30:12.000Z,275.46
2023-11-24T17:31:39.000Z,275.46
2023-11-24T17:33:45.000Z,275.4
2023-11-24T17:35:12.000Z,275.4
2023-11-24T17:37:18.000Z,275.27
2023-11-24T17:38:44.000Z,275.27
2023-11-24T17:40:50.000Z,275.15
2023-11-24T17:42:17.000Z,275.15
2023-11-24T17:44:23.000Z,275.09
2023-11-24T17:45:49.000Z,275.02
2023-11-24T17:47:56.000Z,275.02
2023-11-24T17:49:22.000Z,275.02
2023-11-24T17:51:29.000Z,275.02
2023-11-24T17:52:55.000Z,275.02
2023-11-24T17:55:02.000Z,275.02
2023-11-24T17:57:47.000Z,274.9
2023-11-24T17:59:14.000Z,274.96
2023-11-24T18:01:21.000Z,274.84
2023-11-24T18:02:47.000Z,274.84
2023-11-24T18:04:53.000Z,274.84
2023-11-24T18:06:20.000Z,274.84
2023-11-24T18:08:26.000Z,274.84
2023-11-24T18:09:53.000Z,274.84
2023-11-24T18:11:59.000Z,274.84
2023-11-24T18:13:25.000Z,274.84
2023-11-24T18:15:32.000Z,274.9
2023-11-24T18:16:58.000Z,274.9
2023-11-24T18:19:04.000Z,274.9
2023-11-24T18:20:31.000Z,274.9
2023-11-24T18:22:37.000Z,274.9
2023-11-24T18:24:04.000Z,274.96
2023-11-24T18:26:10.000Z,274.96
2023-11-24T18:27:36.000Z,274.96
2023-11-24T18:29:42.000Z,275.09
2023-11-24T18:31:09.000Z,275.09
2023-11-24T18:33:15.000Z,275.15
2023-11-24T18:36:01.000Z,275.21
2023-11-24T18:37:27.000Z,275.21
2023-11-24T18:39:33.000Z,275.15
2023-11-24T18:41:00.000Z,275.21
2023-11-24T18:43:06.000Z,275.21
2023-11-24T18:44:32.000Z,275.21
2023-11-24T18:46:39.000Z,275.27
2023-11-24T18:48:05.000Z,275.21
2023-11-24T18:50:11.000Z,275.21
2023-11-24T18:51:38.000Z,275.21
2023-11-24T18:53:44.000Z,275.21
2023-11-24T18:55:10.000Z,275.27
2023-11-24T18:57:17.000Z,275.15
2023-11-24T18:58:43.000Z,275.15
2023-11-24T19:00:49.000Z,275.15
2023-11-24T19:02:16.000Z,275.09
2023-11-24T19:04:22.000Z,275.09
2023-11-24T19:05:49.000Z,275.15
2023-11-24T19:07:55.000Z,275.15
2023-11-24T19:09:21.000Z,275.15
2023-11-24T19:11:28.000Z,275.09
2023-11-24T19:14:13.000Z,275.09
2023-11-24T19:15:39.000Z,275.09
2023-11-24T19:17:46.000Z,275.02
2023-11-24T19:19:12.000Z,275.09
2023-11-24T19:21:18.000Z,275.15
2023-11-24T19:22:49.000Z,275.15
2023-11-24T19:24:55.000Z,275.15
2023-11-24T19:26:22.000Z,275.09
2023-11-24T19:28:28.000Z,275.09
2023-11-24T19:29:56.000Z,275.09
2023-11-24T19:32:02.000Z,275.09
2023-11-24T19:33:28.000Z,275.09
2023-11-24T19:35:35.000Z,275.09
2023-11-24T19:37:01.000Z,275.09
2023-11-24T19:39:08.000Z,275.09
2023-11-24T19:40:34.000Z,275.09
2023-11-24T19:42:40.000Z,275.09
2023-11-24T19:44:07.000Z,275.15
2023-11-24T19:46:13.000Z,275.15
2023-11-24T19:47:40.000Z,275.21
2023-11-24T19:49:46.000Z,275.15
2023-11-24T19:52:32.000Z,275.21
2023-11-24T19:53:58.000Z,275.15
2023-11-24T19:56:04.000Z,275.15
2023-11-24T19:57:31.000Z,275.21
2023-11-24T19:59:37.000Z,275.15
2023-11-24T20:01:04.000Z,275.15
2023-11-24T20:03:11.000Z,275.09
2023-11-24T20:04:37.000Z,275.09
2023-11-24T20:06:43.000Z,275.09
2023-11-24T20:08:10.000Z,275.09
2023-11-24T20:10:16.000Z,275.09
2023-11-24T20:11:42.000Z,275.09
2023-11-24T20:13:49.000Z,275.09
2023-11-24T20:15:16.000Z,275.15
2023-11-24T20:17:22.000Z,275.09
2023-11-24T20:18:48.000Z,275.15
2023-11-24T20:20:55.000Z,275.21
2023-11-24T20:22:21.000Z,275.27
2023-11-24T20:24:28.000Z,275.27
2023-11-24T20:25:54.000Z,275.27
2023-11-24T20:28:00.000Z,275.27
2023-11-24T20:30:46.000Z,275.34
2023-11-24T20:32:12.000Z,275.27
2023-11-24T20:34:18.000Z,275.27
2023-11-24T20:35:45.000Z,275.21
2023-11-24T20:37:51.000Z,275.15
2023-11-24T20:39:18.000Z,275.15
2023-11-24T20:41:24.000Z,275.09
2023-11-24T20:42:50.000Z,275.09
2023-11-24T20:44:57.000Z,275.09
2023-11-24T20:46:23.000Z,275.09
2023-11-24T20:48:29.000Z,275.02
2023-11-24T20:49:56.000Z,275.02
2023-11-24T20:52:02.000Z,275.02
2023-11-24T20:53:29.000Z,274.96
2023-11-24T20:55:35.000Z,275.02
2023-11-24T20:57:02.000Z,275.09
2023-11-24T20:59:08.000Z,275.15
2023-11-24T21:00:34.000Z,275.15
2023-11-24T21:02:40.000Z,275.15
2023-11-24T21:04:07.000Z,275.15
2023-11-24T21:06:13.000Z,275.09
2023-11-24T21:08:59.000Z,275.09
2023-11-24T21:10:25.000Z,275.09
2023-11-24T21:12:32.000Z,275.09
2023-11-24T21:13:58.000Z,275.15
2023-11-24T21:16:04.000Z,275.15
2023-11-24T21:17:31.000Z,275.21
2023-11-24T21:19:37.000Z,275.21
2023-11-24T21:21:04.000Z,275.21
2023-11-24T21:23:10.000Z,275.15
2023-11-24T21:24:36.000Z,275.15
2023-11-24T21:26:42.000Z,275.15
2023-11-24T21:28:09.000Z,275.15
2023-11-24T21:30:16.000Z,275.15
2023-11-24T21:31:42.000Z,275.15
2023-11-24T21:33:50.000Z,275.09
2023-11-24T21:35:16.000Z,275.09
2023-11-24T21:37:23.000Z,275.09
2023-11-24T21:38:49.000Z,275.09
2023-11-24T21:40:56.000Z,275.09
2023-11-24T21:42:22.000Z,275.02
2023-11-24T21:44:28.000Z,275.02
2023-11-24T21:47:13.000Z,274.96
2023-11-24T21:48:40.000Z,274.96
2023-11-24T21:50:46.000Z,274.9
2023-11-24T21:52:13.000Z,274.9
2023-11-24T21:54:19.000Z,274.9
2023-11-24T21:55:46.000Z,274.9
2023-11-24T21:57:52.000Z,274.84
2023-11-24T21:59:18.000Z,274.9
2023-11-24T22:01:24.000Z,274.9
2023-11-24T22:02:51.000Z,274.9
2023-11-24T22:04:58.000Z,274.9
2023-11-24T22:06:24.000Z,274.9
2023-11-24T22:08:31.000Z,274.9
2023-11-24T22:09:57.000Z,274.9
2023-11-24T22:12:03.000Z,274.9
2023-11-24T22:13:30.000Z,274.9
2023-11-24T22:15:36.000Z,274.9
2023-11-24T22:17:03.000Z,274.84
2023-11-24T22:19:09.000Z,274.84
2023-11-24T22:20:36.000Z,274.84
2023-11-24T22:22:42.000Z,274.84
2023-11-24T22:25:27.000Z,274.77
2023-11-24T22:26:54.000Z,274.77
2023-11-24T22:29:00.000Z,274.71
2023-11-24T22:30:27.000Z,274.71
2023-11-24T22:32:33.000Z,274.71
2023-11-24T22:33:59.000Z,274.71
2023-11-24T22:36:06.000Z,274.65
2023-11-24T22:37:32.000Z,274.65
2023-11-24T22:39:38.000Z,274.65
2023-11-24T22:41:05.000Z,274.65
2023-11-24T22:43:11.000Z,274.65
2023-11-24T22:44:38.000Z,274.65
2023-11-24T22:46:44.000Z,274.65
2023-11-24T22:48:10.000Z,274.59